sensor_id;sensor_type;location;lat;lon;timestamp;pressure;altitude;pressure_sealevel;temperature
77414;BMP280;66486;49.992;19.164;2023-01-28T00:00:09;99240.19;;;-0.05
77414;BMP280;66486;49.992;19.164;2023-01-28T00:02:55;99227.53;;;0.01
77414;BMP280;66486;49.992;19.164;2023-01-28T00:05:21;99233.72;;;0.05
77414;BMP280;66486;49.992;19.164;2023-01-28T00:07:51;99234.59;;;0.09
77414;BMP280;66486;49.992;19.164;2023-01-28T00:10:17;99236.47;;;0.09
77414;BMP280;66486;49.992;19.164;2023-01-28T00:12:43;99229.53;;;0.16
77414;BMP280;66486;49.992;19.164;2023-01-28T00:15:10;99238.34;;;0.08
77414;BMP280;66486;49.992;19.164;2023-01-28T00:17:36;99238.69;;;0.19
77414;BMP280;66486;49.992;19.164;2023-01-28T00:20:03;99236.69;;;0.16
77414;BMP280;66486;49.992;19.164;2023-01-28T00:22:30;99238.38;;;0.20
77414;BMP280;66486;49.992;19.164;2023-01-28T00:24:57;99227.03;;;0.20
77414;BMP280;66486;49.992;19.164;2023-01-28T00:27:23;99225.78;;;0.05
77414;BMP280;66486;49.992;19.164;2023-01-28T00:29:49;99239.78;;;0.06
77414;BMP280;66486;49.992;19.164;2023-01-28T00:32:15;99242.53;;;0.09
77414;BMP280;66486;49.992;19.164;2023-01-28T00:34:41;99236.47;;;0.09
77414;BMP280;66486;49.992;19.164;2023-01-28T00:37:08;99235.25;;;0.06
77414;BMP280;66486;49.992;19.164;2023-01-28T00:39:34;99238.44;;;0.12
77414;BMP280;66486;49.992;19.164;2023-01-28T00:42:00;99241.69;;;0.17
77414;BMP280;66486;49.992;19.164;2023-01-28T00:44:26;99241.34;;;0.19
77414;BMP280;66486;49.992;19.164;2023-01-28T00:46:52;99246.22;;;0.29
77414;BMP280;66486;49.992;19.164;2023-01-28T00:49:18;99244.63;;;0.16
77414;BMP280;66486;49.992;19.164;2023-01-28T00:51:44;99242.84;;;0.08
77414;BMP280;66486;49.992;19.164;2023-01-28T00:54:11;99237.00;;;0.02
77414;BMP280;66486;49.992;19.164;2023-01-28T00:56:38;99234.25;;;-0.02
77414;BMP280;66486;49.992;19.164;2023-01-28T00:59:04;99239.72;;;-0.07
77414;BMP280;66486;49.992;19.164;2023-01-28T01:01:30;99237.69;;;0.11
77414;BMP280;66486;49.992;19.164;2023-01-28T01:03:56;99238.44;;;-0.01
77414;BMP280;66486;49.992;19.164;2023-01-28T01:06:30;99235.91;;;0.03
77414;BMP280;66486;49.992;19.164;2023-01-28T01:08:56;99233.50;;;0.22
77414;BMP280;66486;49.992;19.164;2023-01-28T01:11:22;99232.84;;;0.13
77414;BMP280;66486;49.992;19.164;2023-01-28T01:13:53;99243.84;;;0.15
77414;BMP280;66486;49.992;19.164;2023-01-28T01:16:22;99240.78;;;0.13
77414;BMP280;66486;49.992;19.164;2023-01-28T01:18:50;99248.00;;;0.04
77414;BMP280;66486;49.992;19.164;2023-01-28T01:21:19;99247.16;;;0.00
77414;BMP280;66486;49.992;19.164;2023-01-28T01:23:46;99248.91;;;0.08
77414;BMP280;66486;49.992;19.164;2023-01-28T01:26:12;99245.59;;;0.11
77414;BMP280;66486;49.992;19.164;2023-01-28T01:28:39;99257.63;;;0.09
77414;BMP280;66486;49.992;19.164;2023-01-28T01:31:07;99252.63;;;-0.05
77414;BMP280;66486;49.992;19.164;2023-01-28T01:33:35;99260.56;;;-0.05
77414;BMP280;66486;49.992;19.164;2023-01-28T01:36:01;99256.59;;;0.01
77414;BMP280;66486;49.992;19.164;2023-01-28T01:38:28;99259.13;;;-0.03
77414;BMP280;66486;49.992;19.164;2023-01-28T01:40:58;99257.97;;;0.07
77414;BMP280;66486;49.992;19.164;2023-01-28T01:43:43;99260.38;;;0.00
77414;BMP280;66486;49.992;19.164;2023-01-28T01:46:11;99260.75;;;-0.10
77414;BMP280;66486;49.992;19.164;2023-01-28T01:48:38;99269.63;;;0.06
77414;BMP280;66486;49.992;19.164;2023-01-28T01:51:13;99268.78;;;0.26
77414;BMP280;66486;49.992;19.164;2023-01-28T01:53:44;99265.69;;;0.12
77414;BMP280;66486;49.992;19.164;2023-01-28T01:56:14;99264.13;;;0.11
77414;BMP280;66486;49.992;19.164;2023-01-28T01:58:43;99269.91;;;0.25
77414;BMP280;66486;49.992;19.164;2023-01-28T02:01:12;99266.91;;;0.15
77414;BMP280;66486;49.992;19.164;2023-01-28T02:04:13;99272.09;;;0.23
77414;BMP280;66486;49.992;19.164;2023-01-28T02:06:41;99271.75;;;0.13
77414;BMP280;66486;49.992;19.164;2023-01-28T02:11:48;99276.94;;;-0.12
77414;BMP280;66486;49.992;19.164;2023-01-28T02:14:14;99278.41;;;-0.02
77414;BMP280;66486;49.992;19.164;2023-01-28T02:16:40;99275.13;;;0.01
77414;BMP280;66486;49.992;19.164;2023-01-28T02:19:08;99282.03;;;0.26
77414;BMP280;66486;49.992;19.164;2023-01-28T02:21:55;99277.72;;;0.22
77414;BMP280;66486;49.992;19.164;2023-01-28T02:27:16;99278.78;;;0.09
77414;BMP280;66486;49.992;19.164;2023-01-28T02:30:12;99271.91;;;-0.05
77414;BMP280;66486;49.992;19.164;2023-01-28T02:32:56;99273.66;;;-0.09
77414;BMP280;66486;49.992;19.164;2023-01-28T02:35:34;99270.53;;;-0.11
77414;BMP280;66486;49.992;19.164;2023-01-28T02:38:15;99274.44;;;-0.08
77414;BMP280;66486;49.992;19.164;2023-01-28T02:40:48;99267.91;;;-0.11
77414;BMP280;66486;49.992;19.164;2023-01-28T02:43:39;99269.75;;;-0.23
77414;BMP280;66486;49.992;19.164;2023-01-28T02:46:19;99274.38;;;-0.20
77414;BMP280;66486;49.992;19.164;2023-01-28T02:49:08;99267.88;;;-0.23
77414;BMP280;66486;49.992;19.164;2023-01-28T02:54:41;99272.56;;;-0.08
77414;BMP280;66486;49.992;19.164;2023-01-28T03:05:04;99277.56;;;-0.15
77414;BMP280;66486;49.992;19.164;2023-01-28T03:07:34;99275.56;;;0.03
77414;BMP280;66486;49.992;19.164;2023-01-28T03:10:03;99280.69;;;-0.13
77414;BMP280;66486;49.992;19.164;2023-01-28T03:12:31;99276.88;;;-0.24
77414;BMP280;66486;49.992;19.164;2023-01-28T03:15:21;99269.22;;;-0.17
77414;BMP280;66486;49.992;19.164;2023-01-28T03:18:31;99282.38;;;-0.08
77414;BMP280;66486;49.992;19.164;2023-01-28T03:21:31;99276.25;;;-0.21
77414;BMP280;66486;49.992;19.164;2023-01-28T03:24:27;99275.28;;;-0.16
77414;BMP280;66486;49.992;19.164;2023-01-28T03:27:18;99273.97;;;-0.10
77414;BMP280;66486;49.992;19.164;2023-01-28T03:30:11;99269.81;;;-0.11
77414;BMP280;66486;49.992;19.164;2023-01-28T03:32:58;99276.81;;;-0.15
77414;BMP280;66486;49.992;19.164;2023-01-28T03:35:42;99274.94;;;-0.15
77414;BMP280;66486;49.992;19.164;2023-01-28T03:38:28;99281.22;;;-0.19
77414;BMP280;66486;49.992;19.164;2023-01-28T03:41:08;99282.34;;;-0.29
77414;BMP280;66486;49.992;19.164;2023-01-28T03:43:35;99280.56;;;-0.37
77414;BMP280;66486;49.992;19.164;2023-01-28T03:46:02;99275.56;;;-0.38
77414;BMP280;66486;49.992;19.164;2023-01-28T03:48:28;99282.19;;;-0.32
77414;BMP280;66486;49.992;19.164;2023-01-28T03:50:55;99284.16;;;-0.21
77414;BMP280;66486;49.992;19.164;2023-01-28T03:53:21;99288.03;;;-0.18
77414;BMP280;66486;49.992;19.164;2023-01-28T03:55:49;99277.78;;;-0.20
77414;BMP280;66486;49.992;19.164;2023-01-28T03:58:17;99283.00;;;-0.32
77414;BMP280;66486;49.992;19.164;2023-01-28T04:00:43;99280.84;;;-0.38
77414;BMP280;66486;49.992;19.164;2023-01-28T04:03:11;99280.44;;;-0.40
77414;BMP280;66486;49.992;19.164;2023-01-28T04:05:58;99279.81;;;-0.46
77414;BMP280;66486;49.992;19.164;2023-01-28T04:08:24;99281.94;;;-0.31
77414;BMP280;66486;49.992;19.164;2023-01-28T04:10:50;99280.50;;;-0.28
77414;BMP280;66486;49.992;19.164;2023-01-28T04:13:17;99285.00;;;-0.29
77414;BMP280;66486;49.992;19.164;2023-01-28T04:15:43;99285.66;;;-0.32
77414;BMP280;66486;49.992;19.164;2023-01-28T04:18:10;99285.84;;;-0.37
77414;BMP280;66486;49.992;19.164;2023-01-28T04:20:37;99286.59;;;-0.36
77414;BMP280;66486;49.992;19.164;2023-01-28T04:23:04;99291.00;;;-0.20
77414;BMP280;66486;49.992;19.164;2023-01-28T04:25:30;99291.31;;;-0.21
77414;BMP280;66486;49.992;19.164;2023-01-28T04:27:57;99293.66;;;-0.20
77414;BMP280;66486;49.992;19.164;2023-01-28T04:30:23;99288.44;;;-0.08
77414;BMP280;66486;49.992;19.164;2023-01-28T04:32:49;99287.91;;;-0.22
77414;BMP280;66486;49.992;19.164;2023-01-28T04:35:16;99289.84;;;-0.31
77414;BMP280;66486;49.992;19.164;2023-01-28T04:37:42;99290.00;;;-0.36
77414;BMP280;66486;49.992;19.164;2023-01-28T04:40:09;99297.28;;;-0.33
77414;BMP280;66486;49.992;19.164;2023-01-28T04:42:36;99294.78;;;-0.29
77414;BMP280;66486;49.992;19.164;2023-01-28T04:45:03;99298.69;;;-0.27
77414;BMP280;66486;49.992;19.164;2023-01-28T04:47:29;99298.22;;;-0.29
77414;BMP280;66486;49.992;19.164;2023-01-28T04:49:55;99313.00;;;-0.28
77414;BMP280;66486;49.992;19.164;2023-01-28T04:52:21;99304.53;;;-0.21
77414;BMP280;66486;49.992;19.164;2023-01-28T04:54:47;99298.34;;;-0.25
77414;BMP280;66486;49.992;19.164;2023-01-28T04:57:13;99301.75;;;-0.25
77414;BMP280;66486;49.992;19.164;2023-01-28T04:59:41;99307.25;;;-0.30
77414;BMP280;66486;49.992;19.164;2023-01-28T05:02:07;99303.50;;;-0.29
77414;BMP280;66486;49.992;19.164;2023-01-28T05:04:33;99299.47;;;-0.26
77414;BMP280;66486;49.992;19.164;2023-01-28T05:06:59;99305.56;;;-0.34
77414;BMP280;66486;49.992;19.164;2023-01-28T05:09:25;99308.38;;;-0.39
77414;BMP280;66486;49.992;19.164;2023-01-28T05:11:51;99305.22;;;-0.33
77414;BMP280;66486;49.992;19.164;2023-01-28T05:14:17;99320.47;;;-0.30
77414;BMP280;66486;49.992;19.164;2023-01-28T05:16:43;99315.34;;;-0.35
77414;BMP280;66486;49.992;19.164;2023-01-28T05:19:09;99310.09;;;-0.43
77414;BMP280;66486;49.992;19.164;2023-01-28T05:21:35;99319.06;;;-0.36
77414;BMP280;66486;49.992;19.164;2023-01-28T05:24:01;99320.94;;;-0.36
77414;BMP280;66486;49.992;19.164;2023-01-28T05:26:27;99306.97;;;-0.37
77414;BMP280;66486;49.992;19.164;2023-01-28T05:28:53;99314.44;;;-0.39
77414;BMP280;66486;49.992;19.164;2023-01-28T05:31:19;99308.88;;;-0.46
77414;BMP280;66486;49.992;19.164;2023-01-28T05:33:45;99311.53;;;-0.46
77414;BMP280;66486;49.992;19.164;2023-01-28T05:36:11;99320.50;;;-0.38
77414;BMP280;66486;49.992;19.164;2023-01-28T05:38:37;99324.31;;;-0.48
77414;BMP280;66486;49.992;19.164;2023-01-28T05:41:03;99317.13;;;-0.48
77414;BMP280;66486;49.992;19.164;2023-01-28T05:43:29;99327.66;;;-0.39
77414;BMP280;66486;49.992;19.164;2023-01-28T05:45:55;99316.50;;;-0.44
77414;BMP280;66486;49.992;19.164;2023-01-28T05:48:21;99326.22;;;-0.36
77414;BMP280;66486;49.992;19.164;2023-01-28T05:50:47;99325.28;;;-0.32
77414;BMP280;66486;49.992;19.164;2023-01-28T05:53:13;99338.78;;;-0.25
77414;BMP280;66486;49.992;19.164;2023-01-28T05:55:39;99333.53;;;-0.33
77414;BMP280;66486;49.992;19.164;2023-01-28T05:58:05;99348.91;;;-0.35
77414;BMP280;66486;49.992;19.164;2023-01-28T06:00:31;99350.13;;;-0.33
77414;BMP280;66486;49.992;19.164;2023-01-28T06:02:57;99351.56;;;-0.35
77414;BMP280;66486;49.992;19.164;2023-01-28T06:05:24;99355.75;;;-0.34
77414;BMP280;66486;49.992;19.164;2023-01-28T06:07:50;99361.66;;;-0.29
77414;BMP280;66486;49.992;19.164;2023-01-28T06:10:16;99361.72;;;-0.17
77414;BMP280;66486;49.992;19.164;2023-01-28T06:12:43;99370.88;;;-0.14
77414;BMP280;66486;49.992;19.164;2023-01-28T06:15:09;99364.75;;;-0.27
77414;BMP280;66486;49.992;19.164;2023-01-28T06:17:35;99370.44;;;-0.16
77414;BMP280;66486;49.992;19.164;2023-01-28T06:20:02;99368.50;;;-0.28
77414;BMP280;66486;49.992;19.164;2023-01-28T06:22:28;99380.06;;;-0.41
77414;BMP280;66486;49.992;19.164;2023-01-28T06:24:54;99390.75;;;-0.37
77414;BMP280;66486;49.992;19.164;2023-01-28T06:27:20;99381.97;;;-0.50
77414;BMP280;66486;49.992;19.164;2023-01-28T06:29:47;99384.56;;;-0.41
77414;BMP280;66486;49.992;19.164;2023-01-28T06:32:12;99392.13;;;-0.31
77414;BMP280;66486;49.992;19.164;2023-01-28T06:34:39;99395.56;;;-0.39
77414;BMP280;66486;49.992;19.164;2023-01-28T06:37:04;99388.41;;;-0.39
77414;BMP280;66486;49.992;19.164;2023-01-28T06:39:31;99390.28;;;-0.39
77414;BMP280;66486;49.992;19.164;2023-01-28T06:41:57;99392.56;;;-0.29
77414;BMP280;66486;49.992;19.164;2023-01-28T06:44:24;99397.97;;;-0.17
77414;BMP280;66486;49.992;19.164;2023-01-28T06:46:49;99400.06;;;-0.31
77414;BMP280;66486;49.992;19.164;2023-01-28T06:49:16;99395.03;;;-0.24
77414;BMP280;66486;49.992;19.164;2023-01-28T06:51:41;99402.34;;;-0.21
77414;BMP280;66486;49.992;19.164;2023-01-28T06:54:08;99404.66;;;-0.20
77414;BMP280;66486;49.992;19.164;2023-01-28T06:56:34;99404.31;;;-0.18
77414;BMP280;66486;49.992;19.164;2023-01-28T06:59:00;99414.06;;;-0.10
77414;BMP280;66486;49.992;19.164;2023-01-28T07:01:26;99414.34;;;-0.03
77414;BMP280;66486;49.992;19.164;2023-01-28T07:03:52;99414.28;;;-0.15
77414;BMP280;66486;49.992;19.164;2023-01-28T07:06:18;99421.63;;;-0.21
77414;BMP280;66486;49.992;19.164;2023-01-28T07:08:44;99423.69;;;-0.26
77414;BMP280;66486;49.992;19.164;2023-01-28T07:11:09;99418.38;;;-0.26
77414;BMP280;66486;49.992;19.164;2023-01-28T07:13:36;99419.47;;;-0.27
77414;BMP280;66486;49.992;19.164;2023-01-28T07:16:01;99425.03;;;-0.20
77414;BMP280;66486;49.992;19.164;2023-01-28T07:18:29;99430.75;;;-0.18
77414;BMP280;66486;49.992;19.164;2023-01-28T07:20:55;99428.59;;;-0.16
77414;BMP280;66486;49.992;19.164;2023-01-28T07:23:21;99430.94;;;0.06
77414;BMP280;66486;49.992;19.164;2023-01-28T07:25:47;99441.50;;;0.06
77414;BMP280;66486;49.992;19.164;2023-01-28T07:28:14;99424.69;;;0.11
77414;BMP280;66486;49.992;19.164;2023-01-28T07:30:49;99427.50;;;0.06
77414;BMP280;66486;49.992;19.164;2023-01-28T07:33:16;99430.34;;;0.00
77414;BMP280;66486;49.992;19.164;2023-01-28T07:35:42;99431.84;;;0.10
77414;BMP280;66486;49.992;19.164;2023-01-28T07:38:09;99438.13;;;-0.03
77414;BMP280;66486;49.992;19.164;2023-01-28T07:40:35;99434.78;;;-0.12
77414;BMP280;66486;49.992;19.164;2023-01-28T07:43:01;99431.59;;;0.03
77414;BMP280;66486;49.992;19.164;2023-01-28T07:45:27;99434.72;;;-0.04
77414;BMP280;66486;49.992;19.164;2023-01-28T07:48:00;99435.63;;;0.00
77414;BMP280;66486;49.992;19.164;2023-01-28T07:50:28;99441.63;;;-0.11
77414;BMP280;66486;49.992;19.164;2023-01-28T07:52:55;99439.75;;;-0.11
77414;BMP280;66486;49.992;19.164;2023-01-28T07:55:21;99448.00;;;-0.12
77414;BMP280;66486;49.992;19.164;2023-01-28T07:57:50;99445.44;;;0.00
77414;BMP280;66486;49.992;19.164;2023-01-28T08:00:16;99438.00;;;-0.07
77414;BMP280;66486;49.992;19.164;2023-01-28T08:02:42;99448.00;;;-0.12
77414;BMP280;66486;49.992;19.164;2023-01-28T08:05:17;99450.25;;;-0.02
77414;BMP280;66486;49.992;19.164;2023-01-28T08:07:44;99438.69;;;-0.18
77414;BMP280;66486;49.992;19.164;2023-01-28T08:10:13;99448.34;;;0.07
77414;BMP280;66486;49.992;19.164;2023-01-28T08:12:40;99443.94;;;0.11
77414;BMP280;66486;49.992;19.164;2023-01-28T08:15:06;99443.56;;;0.00
77414;BMP280;66486;49.992;19.164;2023-01-28T08:17:33;99450.56;;;-0.04
77414;BMP280;66486;49.992;19.164;2023-01-28T08:19:59;99448.97;;;0.04
77414;BMP280;66486;49.992;19.164;2023-01-28T08:22:26;99455.16;;;0.08
77414;BMP280;66486;49.992;19.164;2023-01-28T08:24:52;99453.78;;;0.11
77414;BMP280;66486;49.992;19.164;2023-01-28T08:27:18;99460.84;;;0.19
77414;BMP280;66486;49.992;19.164;2023-01-28T08:29:44;99454.88;;;0.10
77414;BMP280;66486;49.992;19.164;2023-01-28T08:32:10;99454.66;;;-0.06
77414;BMP280;66486;49.992;19.164;2023-01-28T08:34:36;99453.66;;;0.07
77414;BMP280;66486;49.992;19.164;2023-01-28T08:37:02;99456.34;;;-0.02
77414;BMP280;66486;49.992;19.164;2023-01-28T08:39:30;99451.19;;;0.02
77414;BMP280;66486;49.992;19.164;2023-01-28T08:41:57;99463.72;;;0.14
77414;BMP280;66486;49.992;19.164;2023-01-28T08:44:23;99467.53;;;0.25
77414;BMP280;66486;49.992;19.164;2023-01-28T08:46:49;99470.59;;;0.27
77414;BMP280;66486;49.992;19.164;2023-01-28T08:49:15;99465.84;;;0.20
77414;BMP280;66486;49.992;19.164;2023-01-28T08:51:41;99469.56;;;0.19
77414;BMP280;66486;49.992;19.164;2023-01-28T08:54:07;99473.34;;;0.18
77414;BMP280;66486;49.992;19.164;2023-01-28T08:56:33;99471.50;;;0.10
77414;BMP280;66486;49.992;19.164;2023-01-28T08:58:59;99477.88;;;0.09
77414;BMP280;66486;49.992;19.164;2023-01-28T09:01:25;99480.78;;;0.16
77414;BMP280;66486;49.992;19.164;2023-01-28T09:03:53;99480.97;;;0.11
77414;BMP280;66486;49.992;19.164;2023-01-28T09:06:20;99474.50;;;0.29
77414;BMP280;66486;49.992;19.164;2023-01-28T09:08:45;99490.59;;;0.36
77414;BMP280;66486;49.992;19.164;2023-01-28T09:11:11;99474.59;;;0.12
77414;BMP280;66486;49.992;19.164;2023-01-28T09:13:37;99489.56;;;0.08
77414;BMP280;66486;49.992;19.164;2023-01-28T09:16:04;99481.22;;;-0.03
77414;BMP280;66486;49.992;19.164;2023-01-28T09:18:30;99487.78;;;-0.09
77414;BMP280;66486;49.992;19.164;2023-01-28T09:20:56;99490.09;;;-0.07
77414;BMP280;66486;49.992;19.164;2023-01-28T09:23:22;99477.56;;;0.11
77414;BMP280;66486;49.992;19.164;2023-01-28T09:25:49;99491.50;;;-0.01
77414;BMP280;66486;49.992;19.164;2023-01-28T09:28:14;99484.47;;;0.03
77414;BMP280;66486;49.992;19.164;2023-01-28T09:30:41;99485.72;;;-0.03
77414;BMP280;66486;49.992;19.164;2023-01-28T09:33:06;99482.25;;;0.05
77414;BMP280;66486;49.992;19.164;2023-01-28T09:35:33;99483.91;;;0.18
77414;BMP280;66486;49.992;19.164;2023-01-28T09:37:59;99490.28;;;0.17
77414;BMP280;66486;49.992;19.164;2023-01-28T09:40:42;99487.31;;;0.19
77414;BMP280;66486;49.992;19.164;2023-01-28T09:45:47;99496.22;;;0.14
77414;BMP280;66486;49.992;19.164;2023-01-28T09:48:23;99492.34;;;0.12
77414;BMP280;66486;49.992;19.164;2023-01-28T09:50:52;99498.75;;;0.11
77414;BMP280;66486;49.992;19.164;2023-01-28T09:53:23;99490.19;;;0.05
77414;BMP280;66486;49.992;19.164;2023-01-28T09:56:00;99484.41;;;0.12
77414;BMP280;66486;49.992;19.164;2023-01-28T09:58:27;99496.53;;;0.13
77414;BMP280;66486;49.992;19.164;2023-01-28T10:00:58;99499.56;;;0.03
77414;BMP280;66486;49.992;19.164;2023-01-28T10:17:17;99480.47;;;0.38
77414;BMP280;66486;49.992;19.164;2023-01-28T10:20:32;99475.25;;;0.50
77414;BMP280;66486;49.992;19.164;2023-01-28T10:23:21;99485.75;;;0.80
77414;BMP280;66486;49.992;19.164;2023-01-28T10:25:50;99485.19;;;0.54
77414;BMP280;66486;49.992;19.164;2023-01-28T10:28:33;99482.19;;;0.55
77414;BMP280;66486;49.992;19.164;2023-01-28T10:31:00;99485.69;;;0.47
77414;BMP280;66486;49.992;19.164;2023-01-28T10:33:37;99479.41;;;0.51
77414;BMP280;66486;49.992;19.164;2023-01-28T10:36:06;99480.97;;;0.73
77414;BMP280;66486;49.992;19.164;2023-01-28T10:38:32;99487.91;;;0.78
77414;BMP280;66486;49.992;19.164;2023-01-28T10:41:03;99486.59;;;0.72
77414;BMP280;66486;49.992;19.164;2023-01-28T10:43:32;99490.06;;;0.64
77414;BMP280;66486;49.992;19.164;2023-01-28T10:46:15;99492.00;;;0.75
77414;BMP280;66486;49.992;19.164;2023-01-28T10:48:46;99480.56;;;0.83
77414;BMP280;66486;49.992;19.164;2023-01-28T10:51:13;99485.22;;;0.86
77414;BMP280;66486;49.992;19.164;2023-01-28T10:53:44;99476.25;;;0.79
77414;BMP280;66486;49.992;19.164;2023-01-28T10:56:17;99485.31;;;0.57
77414;BMP280;66486;49.992;19.164;2023-01-28T10:58:57;99480.34;;;0.88
77414;BMP280;66486;49.992;19.164;2023-01-28T11:01:24;99487.25;;;0.81
77414;BMP280;66486;49.992;19.164;2023-01-28T11:03:55;99480.47;;;0.92
77414;BMP280;66486;49.992;19.164;2023-01-28T11:06:28;99484.25;;;0.91
77414;BMP280;66486;49.992;19.164;2023-01-28T11:08:54;99483.47;;;0.90
77414;BMP280;66486;49.992;19.164;2023-01-28T11:11:27;99480.19;;;0.73
77414;BMP280;66486;49.992;19.164;2023-01-28T11:13:54;99483.69;;;0.65
77414;BMP280;66486;49.992;19.164;2023-01-28T11:16:23;99486.41;;;0.77
77414;BMP280;66486;49.992;19.164;2023-01-28T11:18:52;99480.28;;;0.97
77414;BMP280;66486;49.992;19.164;2023-01-28T11:21:24;99473.53;;;0.99
77414;BMP280;66486;49.992;19.164;2023-01-28T11:24:04;99479.50;;;0.96
77414;BMP280;66486;49.992;19.164;2023-01-28T11:26:37;99474.94;;;0.85
77414;BMP280;66486;49.992;19.164;2023-01-28T11:29:23;99480.53;;;0.50
77414;BMP280;66486;49.992;19.164;2023-01-28T11:31:50;99480.06;;;0.48
77414;BMP280;66486;49.992;19.164;2023-01-28T11:34:18;99472.16;;;0.28
77414;BMP280;66486;49.992;19.164;2023-01-28T11:37:00;99473.81;;;0.12
77414;BMP280;66486;49.992;19.164;2023-01-28T11:39:28;99477.72;;;0.14
77414;BMP280;66486;49.992;19.164;2023-01-28T11:42:08;99467.66;;;0.28
77414;BMP280;66486;49.992;19.164;2023-01-28T11:44:36;99476.38;;;0.29
77414;BMP280;66486;49.992;19.164;2023-01-28T11:47:25;99470.22;;;0.16
77414;BMP280;66486;49.992;19.164;2023-01-28T11:53:17;99474.84;;;0.19
77414;BMP280;66486;49.992;19.164;2023-01-28T11:58:33;99471.63;;;0.34
77414;BMP280;66486;49.992;19.164;2023-01-28T12:12:01;99460.06;;;0.39
77414;BMP280;66486;49.992;19.164;2023-01-28T12:31:23;99465.22;;;0.89
77414;BMP280;66486;49.992;19.164;2023-01-28T12:37:18;99467.19;;;1.13
77414;BMP280;66486;49.992;19.164;2023-01-28T12:39:58;99471.53;;;1.29
77414;BMP280;66486;49.992;19.164;2023-01-28T12:42:44;99474.06;;;1.26
77414;BMP280;66486;49.992;19.164;2023-01-28T12:48:01;99466.00;;;1.34
77414;BMP280;66486;49.992;19.164;2023-01-28T12:50:43;99468.19;;;1.44
77414;BMP280;66486;49.992;19.164;2023-01-28T12:53:27;99469.31;;;1.56
77414;BMP280;66486;49.992;19.164;2023-01-28T12:56:22;99469.31;;;1.43
77414;BMP280;66486;49.992;19.164;2023-01-28T12:58:56;99471.19;;;1.55
77414;BMP280;66486;49.992;19.164;2023-01-28T13:01:29;99474.84;;;1.38
77414;BMP280;66486;49.992;19.164;2023-01-28T13:07:37;99479.19;;;1.10
77414;BMP280;66486;49.992;19.164;2023-01-28T13:10:18;99496.69;;;1.23
77414;BMP280;66486;49.992;19.164;2023-01-28T13:12:47;99498.44;;;1.19
77414;BMP280;66486;49.992;19.164;2023-01-28T13:15:15;99490.69;;;1.02
77414;BMP280;66486;49.992;19.164;2023-01-28T13:18:02;99481.22;;;1.13
77414;BMP280;66486;49.992;19.164;2023-01-28T13:20:47;99494.81;;;0.91
77414;BMP280;66486;49.992;19.164;2023-01-28T13:23:36;99487.81;;;0.74
77414;BMP280;66486;49.992;19.164;2023-01-28T13:28:49;99495.69;;;0.62
77414;BMP280;66486;49.992;19.164;2023-01-28T13:31:20;99490.72;;;0.61
77414;BMP280;66486;49.992;19.164;2023-01-28T13:36:48;99496.16;;;0.64
77414;BMP280;66486;49.992;19.164;2023-01-28T13:39:20;99493.44;;;0.73
77414;BMP280;66486;49.992;19.164;2023-01-28T13:41:54;99489.78;;;0.77
77414;BMP280;66486;49.992;19.164;2023-01-28T13:46:51;99489.22;;;0.72
77414;BMP280;66486;49.992;19.164;2023-01-28T13:49:25;99496.31;;;0.80
77414;BMP280;66486;49.992;19.164;2023-01-28T13:51:59;99493.22;;;0.78
77414;BMP280;66486;49.992;19.164;2023-01-28T13:54:28;99500.13;;;0.91
77414;BMP280;66486;49.992;19.164;2023-01-28T14:10:32;99509.38;;;0.64
77414;BMP280;66486;49.992;19.164;2023-01-28T14:15:52;99520.97;;;0.92
77414;BMP280;66486;49.992;19.164;2023-01-28T14:18:25;99519.56;;;0.95
77414;BMP280;66486;49.992;19.164;2023-01-28T14:20:55;99518.34;;;0.72
77414;BMP280;66486;49.992;19.164;2023-01-28T14:23:22;99521.78;;;0.72
77414;BMP280;66486;49.992;19.164;2023-01-28T14:26:12;99523.69;;;0.63
77414;BMP280;66486;49.992;19.164;2023-01-28T14:31:17;99519.81;;;0.81
77414;BMP280;66486;49.992;19.164;2023-01-28T14:33:45;99523.31;;;0.94
77414;BMP280;66486;49.992;19.164;2023-01-28T14:36:12;99519.56;;;1.28
77414;BMP280;66486;49.992;19.164;2023-01-28T14:38:41;99523.19;;;1.35
77414;BMP280;66486;49.992;19.164;2023-01-28T14:41:10;99529.50;;;0.98
77414;BMP280;66486;49.992;19.164;2023-01-28T14:43:41;99529.75;;;1.05
77414;BMP280;66486;49.992;19.164;2023-01-28T14:46:21;99528.06;;;1.00
77414;BMP280;66486;49.992;19.164;2023-01-28T14:59:46;99529.63;;;0.81
77414;BMP280;66486;49.992;19.164;2023-01-28T15:02:21;99538.47;;;0.85
77414;BMP280;66486;49.992;19.164;2023-01-28T15:04:48;99538.09;;;0.95
77414;BMP280;66486;49.992;19.164;2023-01-28T15:09:44;99539.59;;;0.84
77414;BMP280;66486;49.992;19.164;2023-01-28T15:12:12;99542.69;;;0.86
77414;BMP280;66486;49.992;19.164;2023-01-28T15:14:39;99551.53;;;0.69
77414;BMP280;66486;49.992;19.164;2023-01-28T15:17:20;99550.97;;;0.84
77414;BMP280;66486;49.992;19.164;2023-01-28T15:19:50;99549.91;;;0.97
77414;BMP280;66486;49.992;19.164;2023-01-28T15:22:19;99560.09;;;1.08
77414;BMP280;66486;49.992;19.164;2023-01-28T15:24:49;99560.69;;;1.13
77414;BMP280;66486;49.992;19.164;2023-01-28T15:27:17;99556.31;;;1.29
77414;BMP280;66486;49.992;19.164;2023-01-28T15:29:52;99555.06;;;1.15
77414;BMP280;66486;49.992;19.164;2023-01-28T15:32:25;99558.41;;;1.36
77414;BMP280;66486;49.992;19.164;2023-01-28T15:34:51;99564.25;;;1.17
77414;BMP280;66486;49.992;19.164;2023-01-28T15:37:18;99563.13;;;1.18
77414;BMP280;66486;49.992;19.164;2023-01-28T15:39:45;99562.84;;;1.32
77414;BMP280;66486;49.992;19.164;2023-01-28T15:42:22;99570.69;;;1.40
77414;BMP280;66486;49.992;19.164;2023-01-28T15:44:51;99576.69;;;1.49
77414;BMP280;66486;49.992;19.164;2023-01-28T15:47:32;99578.13;;;1.14
77414;BMP280;66486;49.992;19.164;2023-01-28T15:50:03;99574.97;;;1.33
77414;BMP280;66486;49.992;19.164;2023-01-28T15:52:38;99578.88;;;1.47
77414;BMP280;66486;49.992;19.164;2023-01-28T15:55:06;99587.94;;;1.46
77414;BMP280;66486;49.992;19.164;2023-01-28T15:57:34;99589.34;;;1.44
77414;BMP280;66486;49.992;19.164;2023-01-28T16:00:19;99586.63;;;1.52
77414;BMP280;66486;49.992;19.164;2023-01-28T16:02:47;99596.69;;;1.59
77414;BMP280;66486;49.992;19.164;2023-01-28T16:05:32;99599.50;;;1.75
77414;BMP280;66486;49.992;19.164;2023-01-28T16:08:08;99597.38;;;1.92
77414;BMP280;66486;49.992;19.164;2023-01-28T16:10:35;99592.78;;;2.01
77414;BMP280;66486;49.992;19.164;2023-01-28T16:13:26;99592.88;;;2.17
77414;BMP280;66486;49.992;19.164;2023-01-28T16:15:54;99588.31;;;2.06
77414;BMP280;66486;49.992;19.164;2023-01-28T16:20:51;99587.75;;;1.64